sensor_id;sensor_type;location;lat;lon;timestamp;temperature;humidity
65291;SHT30;51893;59.754;10.110;2022-08-21T00:01:54;15.80;64.96
65291;SHT30;51893;59.754;10.110;2022-08-21T00:04:22;15.71;64.89
65291;SHT30;51893;59.754;10.110;2022-08-21T00:06:56;15.73;64.70
65291;SHT30;51893;59.754;10.110;2022-08-21T00:09:26;15.70;64.99
65291;SHT30;51893;59.754;10.110;2022-08-21T00:11:54;15.60;66.05
65291;SHT30;51893;59.754;10.110;2022-08-21T00:14:22;15.54;66.42
65291;SHT30;51893;59.754;10.110;2022-08-21T00:16:50;15.50;67.04
65291;SHT30;51893;59.754;10.110;2022-08-21T00:19:22;15.52;67.08
65291;SHT30;51893;59.754;10.110;2022-08-21T00:21:52;15.53;67.10
65291;SHT30;51893;59.754;10.110;2022-08-21T00:24:21;15.50;67.11
65291;SHT30;51893;59.754;10.110;2022-08-21T00:26:51;15.49;67.37
65291;SHT30;51893;59.754;10.110;2022-08-21T00:29:19;15.44;67.39
65291;SHT30;51893;59.754;10.110;2022-08-21T00:31:50;15.39;67.38
65291;SHT30;51893;59.754;10.110;2022-08-21T00:34:17;15.26;67.68
65291;SHT30;51893;59.754;10.110;2022-08-21T00:36:45;15.20;68.31
65291;SHT30;51893;59.754;10.110;2022-08-21T00:39:13;15.19;68.53
65291;SHT30;51893;59.754;10.110;2022-08-21T00:41:41;15.20;68.76
65291;SHT30;51893;59.754;10.110;2022-08-21T00:44:11;15.14;69.21
65291;SHT30;51893;59.754;10.110;2022-08-21T00:46:42;15.07;69.45
65291;SHT30;51893;59.754;10.110;2022-08-21T00:49:11;14.99;69.81
65291;SHT30;51893;59.754;10.110;2022-08-21T00:51:42;14.93;70.16
65291;SHT30;51893;59.754;10.110;2022-08-21T00:54:18;14.96;70.14
65291;SHT30;51893;59.754;10.110;2022-08-21T00:56:53;14.94;70.02
65291;SHT30;51893;59.754;10.110;2022-08-21T00:59:27;14.86;70.96
65291;SHT30;51893;59.754;10.110;2022-08-21T01:02:02;14.84;71.35
65291;SHT30;51893;59.754;10.110;2022-08-21T01:04:34;14.85;71.19
65291;SHT30;51893;59.754;10.110;2022-08-21T01:07:03;14.84;71.41
65291;SHT30;51893;59.754;10.110;2022-08-21T01:09:32;14.73;71.79
65291;SHT30;51893;59.754;10.110;2022-08-21T01:12:00;14.71;71.73
65291;SHT30;51893;59.754;10.110;2022-08-21T01:14:29;14.70;71.73
65291;SHT30;51893;59.754;10.110;2022-08-21T01:16:58;14.68;71.65
65291;SHT30;51893;59.754;10.110;2022-08-21T01:19:30;14.60;72.13
65291;SHT30;51893;59.754;10.110;2022-08-21T01:21:58;14.60;72.73
65291;SHT30;51893;59.754;10.110;2022-08-21T01:24:27;14.62;72.44
65291;SHT30;51893;59.754;10.110;2022-08-21T01:26:55;14.64;72.87
65291;SHT30;51893;59.754;10.110;2022-08-21T01:32:26;14.60;72.87
65291;SHT30;51893;59.754;10.110;2022-08-21T01:34:54;14.52;72.90
65291;SHT30;51893;59.754;10.110;2022-08-21T01:37:21;14.52;72.63
65291;SHT30;51893;59.754;10.110;2022-08-21T01:39:50;14.45;72.60
65291;SHT30;51893;59.754;10.110;2022-08-21T01:42:17;14.39;72.62
65291;SHT30;51893;59.754;10.110;2022-08-21T01:44:46;14.36;72.71
65291;SHT30;51893;59.754;10.110;2022-08-21T01:47:15;14.33;72.91
65291;SHT30;51893;59.754;10.110;2022-08-21T01:49:44;14.40;72.83
65291;SHT30;51893;59.754;10.110;2022-08-21T01:52:12;14.39;73.68
65291;SHT30;51893;59.754;10.110;2022-08-21T01:54:40;14.34;73.87
65291;SHT30;51893;59.754;10.110;2022-08-21T01:57:09;14.32;74.24
65291;SHT30;51893;59.754;10.110;2022-08-21T01:59:38;14.34;74.19
65291;SHT30;51893;59.754;10.110;2022-08-21T02:02:07;14.34;74.11
65291;SHT30;51893;59.754;10.110;2022-08-21T02:04:35;14.24;73.78
65291;SHT30;51893;59.754;10.110;2022-08-21T02:07:03;14.12;73.72
65291;SHT30;51893;59.754;10.110;2022-08-21T02:09:36;14.09;73.71
65291;SHT30;51893;59.754;10.110;2022-08-21T02:12:08;14.09;73.62
65291;SHT30;51893;59.754;10.110;2022-08-21T02:14:38;14.01;73.86
65291;SHT30;51893;59.754;10.110;2022-08-21T02:17:06;13.98;74.05
65291;SHT30;51893;59.754;10.110;2022-08-21T02:19:37;14.01;73.90
65291;SHT30;51893;59.754;10.110;2022-08-21T02:22:10;14.02;74.26
65291;SHT30;51893;59.754;10.110;2022-08-21T02:24:39;14.05;74.28
65291;SHT30;51893;59.754;10.110;2022-08-21T02:27:22;14.02;74.88
65291;SHT30;51893;59.754;10.110;2022-08-21T02:29:54;13.99;75.69
65291;SHT30;51893;59.754;10.110;2022-08-21T02:32:24;13.98;75.70
65291;SHT30;51893;59.754;10.110;2022-08-21T02:34:53;13.99;75.37
65291;SHT30;51893;59.754;10.110;2022-08-21T02:37:22;13.89;75.57
65291;SHT30;51893;59.754;10.110;2022-08-21T02:39:51;13.83;76.17
65291;SHT30;51893;59.754;10.110;2022-08-21T02:42:19;13.80;76.51
65291;SHT30;51893;59.754;10.110;2022-08-21T02:44:47;13.82;75.87
65291;SHT30;51893;59.754;10.110;2022-08-21T02:47:15;13.86;75.52
65291;SHT30;51893;59.754;10.110;2022-08-21T02:49:43;13.87;75.37
65291;SHT30;51893;59.754;10.110;2022-08-21T02:52:10;13.84;75.37
65291;SHT30;51893;59.754;10.110;2022-08-21T02:54:39;13.81;75.48
65291;SHT30;51893;59.754;10.110;2022-08-21T02:57:06;13.81;75.55
65291;SHT30;51893;59.754;10.110;2022-08-21T02:59:35;13.81;75.54
65291;SHT30;51893;59.754;10.110;2022-08-21T03:02:03;13.81;75.41
65291;SHT30;51893;59.754;10.110;2022-08-21T03:04:31;13.85;75.36
65291;SHT30;51893;59.754;10.110;2022-08-21T03:06:59;13.90;75.24
65291;SHT30;51893;59.754;10.110;2022-08-21T03:09:27;13.90;75.15
65291;SHT30;51893;59.754;10.110;2022-08-21T03:11:56;13.93;75.28
65291;SHT30;51893;59.754;10.110;2022-08-21T03:14:24;14.01;75.44
65291;SHT30;51893;59.754;10.110;2022-08-21T03:16:52;14.06;75.52
65291;SHT30;51893;59.754;10.110;2022-08-21T03:19:20;14.06;75.45
65291;SHT30;51893;59.754;10.110;2022-08-21T03:21:48;14.04;76.35
65291;SHT30;51893;59.754;10.110;2022-08-21T03:24:16;14.00;76.51
65291;SHT30;51893;59.754;10.110;2022-08-21T03:26:47;14.03;76.38
65291;SHT30;51893;59.754;10.110;2022-08-21T03:29:16;14.16;75.77
65291;SHT30;51893;59.754;10.110;2022-08-21T03:31:43;14.22;75.54
65291;SHT30;51893;59.754;10.110;2022-08-21T03:34:11;14.17;76.35
65291;SHT30;51893;59.754;10.110;2022-08-21T03:36:39;14.12;77.17
65291;SHT30;51893;59.754;10.110;2022-08-21T03:39:07;14.08;77.28
65291;SHT30;51893;59.754;10.110;2022-08-21T03:41:35;14.08;76.99
65291;SHT30;51893;59.754;10.110;2022-08-21T03:44:04;14.09;76.92
65291;SHT30;51893;59.754;10.110;2022-08-21T03:46:31;14.06;76.93
65291;SHT30;51893;59.754;10.110;2022-08-21T03:48:59;14.07;76.98
65291;SHT30;51893;59.754;10.110;2022-08-21T03:51:28;14.08;76.94
65291;SHT30;51893;59.754;10.110;2022-08-21T03:53:55;14.05;76.96
65291;SHT30;51893;59.754;10.110;2022-08-21T03:56:23;14.07;76.80
65291;SHT30;51893;59.754;10.110;2022-08-21T03:58:51;14.11;76.63
65291;SHT30;51893;59.754;10.110;2022-08-21T04:01:19;14.13;76.50
65291;SHT30;51893;59.754;10.110;2022-08-21T04:03:47;14.09;76.58
65291;SHT30;51893;59.754;10.110;2022-08-21T04:06:15;14.09;76.67
65291;SHT30;51893;59.754;10.110;2022-08-21T04:08:43;14.16;77.30
65291;SHT30;51893;59.754;10.110;2022-08-21T04:11:10;14.14;77.70
65291;SHT30;51893;59.754;10.110;2022-08-21T04:13:39;14.11;77.90
65291;SHT30;51893;59.754;10.110;2022-08-21T04:16:11;14.09;78.38
65291;SHT30;51893;59.754;10.110;2022-08-21T04:18:41;14.11;78.28
65291;SHT30;51893;59.754;10.110;2022-08-21T04:21:09;14.12;77.89
65291;SHT30;51893;59.754;10.110;2022-08-21T04:23:40;14.15;77.28
65291;SHT30;51893;59.754;10.110;2022-08-21T04:26:08;14.14;77.32
65291;SHT30;51893;59.754;10.110;2022-08-21T04:28:36;14.11;77.28
65291;SHT30;51893;59.754;10.110;2022-08-21T04:31:04;14.11;77.21
65291;SHT30;51893;59.754;10.110;2022-08-21T04:33:32;14.10;77.23
65291;SHT30;51893;59.754;10.110;2022-08-21T04:36:00;14.14;77.24
65291;SHT30;51893;59.754;10.110;2022-08-21T04:38:28;14.18;77.01
65291;SHT30;51893;59.754;10.110;2022-08-21T04:41:04;14.19;76.97
65291;SHT30;51893;59.754;10.110;2022-08-21T04:43:33;14.18;77.01
65291;SHT30;51893;59.754;10.110;2022-08-21T04:46:02;14.20;77.01
65291;SHT30;51893;59.754;10.110;2022-08-21T04:48:30;14.16;77.15
65291;SHT30;51893;59.754;10.110;2022-08-21T04:51:01;14.10;77.40
65291;SHT30;51893;59.754;10.110;2022-08-21T04:56:08;14.17;78.61
65291;SHT30;51893;59.754;10.110;2022-08-21T04:58:40;14.20;78.21
65291;SHT30;51893;59.754;10.110;2022-08-21T05:01:11;14.21;78.07
65291;SHT30;51893;59.754;10.110;2022-08-21T05:03:47;14.24;78.07
65291;SHT30;51893;59.754;10.110;2022-08-21T05:06:17;14.29;77.76
65291;SHT30;51893;59.754;10.110;2022-08-21T05:08:50;14.33;77.56
65291;SHT30;51893;59.754;10.110;2022-08-21T05:11:29;14.35;77.55
65291;SHT30;51893;59.754;10.110;2022-08-21T05:13:59;14.40;77.63
65291;SHT30;51893;59.754;10.110;2022-08-21T05:16:27;14.44;77.69
65291;SHT30;51893;59.754;10.110;2022-08-21T05:19:05;14.51;77.78
65291;SHT30;51893;59.754;10.110;2022-08-21T05:21:34;14.57;77.80
65291;SHT30;51893;59.754;10.110;2022-08-21T05:24:06;14.62;77.82
65291;SHT30;51893;59.754;10.110;2022-08-21T05:26:34;14.64;77.83
65291;SHT30;51893;59.754;10.110;2022-08-21T05:29:13;14.67;77.69
65291;SHT30;51893;59.754;10.110;2022-08-21T05:31:45;14.71;78.11
65291;SHT30;51893;59.754;10.110;2022-08-21T05:34:17;14.75;78.16
65291;SHT30;51893;59.754;10.110;2022-08-21T05:36:47;14.81;78.47
65291;SHT30;51893;59.754;10.110;2022-08-21T05:39:15;14.92;78.34
65291;SHT30;51893;59.754;10.110;2022-08-21T05:41:44;14.95;78.60
65291;SHT30;51893;59.754;10.110;2022-08-21T05:44:11;14.97;78.74
65291;SHT30;51893;59.754;10.110;2022-08-21T05:46:39;14.99;78.63
65291;SHT30;51893;59.754;10.110;2022-08-21T05:49:07;15.01;78.70
65291;SHT30;51893;59.754;10.110;2022-08-21T05:51:35;15.09;78.44
65291;SHT30;51893;59.754;10.110;2022-08-21T05:54:04;15.17;78.52
65291;SHT30;51893;59.754;10.110;2022-08-21T05:56:32;15.27;78.58
65291;SHT30;51893;59.754;10.110;2022-08-21T05:59:00;15.33;78.68
65291;SHT30;51893;59.754;10.110;2022-08-21T06:01:34;15.40;78.49
65291;SHT30;51893;59.754;10.110;2022-08-21T06:04:03;15.47;78.34
65291;SHT30;51893;59.754;10.110;2022-08-21T06:06:31;15.53;78.07
65291;SHT30;51893;59.754;10.110;2022-08-21T06:08:59;15.56;77.99
65291;SHT30;51893;59.754;10.110;2022-08-21T06:11:28;15.61;77.64
65291;SHT30;51893;59.754;10.110;2022-08-21T06:13:56;15.71;77.71
65291;SHT30;51893;59.754;10.110;2022-08-21T06:16:25;15.79;77.54
65291;SHT30;51893;59.754;10.110;2022-08-21T06:18:54;15.85;77.32
65291;SHT30;51893;59.754;10.110;2022-08-21T06:21:29;15.89;77.17
65291;SHT30;51893;59.754;10.110;2022-08-21T06:23:57;15.91;77.46
65291;SHT30;51893;59.754;10.110;2022-08-21T06:26:26;15.93;77.72
65291;SHT30;51893;59.754;10.110;2022-08-21T06:28:55;16.01;77.94
65291;SHT30;51893;59.754;10.110;2022-08-21T06:31:23;16.11;77.87
65291;SHT30;51893;59.754;10.110;2022-08-21T06:33:54;16.24;77.91
65291;SHT30;51893;59.754;10.110;2022-08-21T06:36:23;16.31;77.84
65291;SHT30;51893;59.754;10.110;2022-08-21T06:38:52;16.40;77.71
65291;SHT30;51893;59.754;10.110;2022-08-21T06:41:19;16.56;77.82
65291;SHT30;51893;59.754;10.110;2022-08-21T06:43:50;16.75;77.95
65291;SHT30;51893;59.754;10.110;2022-08-21T06:46:19;16.94;77.68
65291;SHT30;51893;59.754;10.110;2022-08-21T06:48:47;17.13;77.17
65291;SHT30;51893;59.754;10.110;2022-08-21T06:51:15;17.30;76.85
65291;SHT30;51893;59.754;10.110;2022-08-21T06:53:43;17.45;76.70
65291;SHT30;51893;59.754;10.110;2022-08-21T06:56:11;17.63;76.50
65291;SHT30;51893;59.754;10.110;2022-08-21T06:58:39;17.77;75.93
65291;SHT30;51893;59.754;10.110;2022-08-21T07:01:07;17.86;75.51
65291;SHT30;51893;59.754;10.110;2022-08-21T07:03:36;17.98;75.33
65291;SHT30;51893;59.754;10.110;2022-08-21T07:06:08;18.07;75.10
65291;SHT30;51893;59.754;10.110;2022-08-21T07:08:38;18.16;74.81
65291;SHT30;51893;59.754;10.110;2022-08-21T07:11:14;18.21;74.20
65291;SHT30;51893;59.754;10.110;2022-08-21T07:13:47;18.25;73.92
65291;SHT30;51893;59.754;10.110;2022-08-21T07:16:18;18.32;73.80
65291;SHT30;51893;59.754;10.110;2022-08-21T07:18:48;18.39;73.67
65291;SHT30;51893;59.754;10.110;2022-08-21T07:21:17;18.44;73.02
65291;SHT30;51893;59.754;10.110;2022-08-21T07:23:52;18.49;72.99
65291;SHT30;51893;59.754;10.110;2022-08-21T07:26:22;18.52;72.47
65291;SHT30;51893;59.754;10.110;2022-08-21T07:28:51;18.54;72.16
65291;SHT30;51893;59.754;10.110;2022-08-21T07:31:21;18.58;72.04
65291;SHT30;51893;59.754;10.110;2022-08-21T07:33:53;18.60;72.11
65291;SHT30;51893;59.754;10.110;2022-08-21T07:36:21;18.62;72.23
65291;SHT30;51893;59.754;10.110;2022-08-21T07:38:51;18.65;72.55
65291;SHT30;51893;59.754;10.110;2022-08-21T07:41:21;18.67;72.20
65291;SHT30;51893;59.754;10.110;2022-08-21T07:43:56;18.69;71.46
65291;SHT30;51893;59.754;10.110;2022-08-21T07:46:25;18.72;71.08
65291;SHT30;51893;59.754;10.110;2022-08-21T07:48:54;18.76;70.67
65291;SHT30;51893;59.754;10.110;2022-08-21T07:51:24;18.82;69.83
65291;SHT30;51893;59.754;10.110;2022-08-21T07:53:56;18.86;69.06
65291;SHT30;51893;59.754;10.110;2022-08-21T07:56:27;18.85;68.33
65291;SHT30;51893;59.754;10.110;2022-08-21T07:58:58;18.84;67.40
65291;SHT30;51893;59.754;10.110;2022-08-21T08:01:26;18.82;66.62
65291;SHT30;51893;59.754;10.110;2022-08-21T08:03:54;18.83;66.67
65291;SHT30;51893;59.754;10.110;2022-08-21T08:06:23;18.83;66.14
65291;SHT30;51893;59.754;10.110;2022-08-21T08:08:53;18.86;66.84
65291;SHT30;51893;59.754;10.110;2022-08-21T08:11:21;18.89;66.65
65291;SHT30;51893;59.754;10.110;2022-08-21T08:13:51;18.91;66.60
65291;SHT30;51893;59.754;10.110;2022-08-21T08:16:19;18.92;66.34
65291;SHT30;51893;59.754;10.110;2022-08-21T08:18:48;18.95;65.33
65291;SHT30;51893;59.754;10.110;2022-08-21T08:21:15;19.00;65.25
65291;SHT30;51893;59.754;10.110;2022-08-21T08:23:45;19.09;65.54
65291;SHT30;51893;59.754;10.110;2022-08-21T08:26:13;19.22;65.51
65291;SHT30;51893;59.754;10.110;2022-08-21T08:28:43;19.36;65.79
65291;SHT30;51893;59.754;10.110;2022-08-21T08:31:11;19.52;67.00
65291;SHT30;51893;59.754;10.110;2022-08-21T08:33:39;19.68;68.44
65291;SHT30;51893;59.754;10.110;2022-08-21T08:36:12;19.77;68.58
65291;SHT30;51893;59.754;10.110;2022-08-21T08:38:46;19.82;69.05
65291;SHT30;51893;59.754;10.110;2022-08-21T08:41:16;19.84;69.15
65291;SHT30;51893;59.754;10.110;2022-08-21T08:43:50;19.78;69.17
65291;SHT30;51893;59.754;10.110;2022-08-21T08:46:41;19.64;69.34
65291;SHT30;51893;59.754;10.110;2022-08-21T08:51:53;19.48;69.50
65291;SHT30;51893;59.754;10.110;2022-08-21T08:54:47;19.38;69.73
65291;SHT30;51893;59.754;10.110;2022-08-21T08:57:35;19.29;70.40
65291;SHT30;51893;59.754;10.110;2022-08-21T09:00:10;19.26;71.51
65291;SHT30;51893;59.754;10.110;2022-08-21T09:02:44;19.17;72.08
65291;SHT30;51893;59.754;10.110;2022-08-21T09:05:19;19.13;73.06
65291;SHT30;51893;59.754;10.110;2022-08-21T09:08:00;19.15;73.47
65291;SHT30;51893;59.754;10.110;2022-08-21T09:11:00;19.19;73.37
65291;SHT30;51893;59.754;10.110;2022-08-21T09:19:34;19.36;73.77
65291;SHT30;51893;59.754;10.110;2022-08-21T09:22:19;19.46;73.82
65291;SHT30;51893;59.754;10.110;2022-08-21T09:25:32;19.54;72.91
65291;SHT30;51893;59.754;10.110;2022-08-21T09:28:13;19.61;72.95
65291;SHT30;51893;59.754;10.110;2022-08-21T09:30:42;19.66;72.87
65291;SHT30;51893;59.754;10.110;2022-08-21T09:33:11;19.68;72.20
65291;SHT30;51893;59.754;10.110;2022-08-21T09:35:50;19.60;71.39
65291;SHT30;51893;59.754;10.110;2022-08-21T09:38:25;19.55;71.08
65291;SHT30;51893;59.754;10.110;2022-08-21T09:41:03;19.43;70.56
65291;SHT30;51893;59.754;10.110;2022-08-21T09:43:36;19.36;70.57
65291;SHT30;51893;59.754;10.110;2022-08-21T09:46:09;19.33;70.36
65291;SHT30;51893;59.754;10.110;2022-08-21T09:48:49;19.32;70.32
65291;SHT30;51893;59.754;10.110;2022-08-21T09:51:24;19.30;70.34
65291;SHT30;51893;59.754;10.110;2022-08-21T09:56:36;19.37;68.88
65291;SHT30;51893;59.754;10.110;2022-08-21T09:59:37;19.40;68.45
65291;SHT30;51893;59.754;10.110;2022-08-21T10:02:21;19.45;68.29
65291;SHT30;51893;59.754;10.110;2022-08-21T10:04:56;19.42;66.84
65291;SHT30;51893;59.754;10.110;2022-08-21T10:07:31;19.50;67.52
65291;SHT30;51893;59.754;10.110;2022-08-21T10:10:09;19.48;67.15
65291;SHT30;51893;59.754;10.110;2022-08-21T10:13:12;19.45;67.32
65291;SHT30;51893;59.754;10.110;2022-08-21T10:15:56;19.41;67.50
65291;SHT30;51893;59.754;10.110;2022-08-21T10:25:20;19.22;67.73
65291;SHT30;51893;59.754;10.110;2022-08-21T10:36:58;19.32;67.42
65291;SHT30;51893;59.754;10.110;2022-08-21T10:39:59;19.39;67.10
65291;SHT30;51893;59.754;10.110;2022-08-21T10:48:37;19.41;65.18
65291;SHT30;51893;59.754;10.110;2022-08-21T10:51:36;19.42;65.29
65291;SHT30;51893;59.754;10.110;2022-08-21T10:54:50;19.51;64.83
65291;SHT30;51893;59.754;10.110;2022-08-21T11:00:48;19.51;64.08
65291;SHT30;51893;59.754;10.110;2022-08-21T11:06:05;19.79;63.69
65291;SHT30;51893;59.754;10.110;2022-08-21T11:08:56;19.82;63.46
65291;SHT30;51893;59.754;10.110;2022-08-21T11:11:36;19.86;63.76
65291;SHT30;51893;59.754;10.110;2022-08-21T11:17:38;19.96;63.87
65291;SHT30;51893;59.754;10.110;2022-08-21T11:20:18;20.01;64.28
65291;SHT30;51893;59.754;10.110;2022-08-21T11:23:01;19.96;63.98
65291;SHT30;51893;59.754;10.110;2022-08-21T11:26:02;19.99;64.64
65291;SHT30;51893;59.754;10.110;2022-08-21T11:29:00;20.08;64.61
65291;SHT30;51893;59.754;10.110;2022-08-21T11:31:51;20.14;63.96
65291;SHT30;51893;59.754;10.110;2022-08-21T11:46:13;20.08;61.39
65291;SHT30;51893;59.754;10.110;2022-08-21T11:54:56;19.97;61.61
65291;SHT30;51893;59.754;10.110;2022-08-21T11:57:51;19.95;61.35
65291;SHT30;51893;59.754;10.110;2022-08-21T12:00:24;19.95;61.84
65291;SHT30;51893;59.754;10.110;2022-08-21T12:02:59;19.93;62.49
65291;SHT30;51893;59.754;10.110;2022-08-21T12:05:42;19.91;62.77
65291;SHT30;51893;59.754;10.110;2022-08-21T12:08:31;19.99;63.11
65291;SHT30;51893;59.754;10.110;2022-08-21T12:13:55;20.30;62.29
65291;SHT30;51893;59.754;10.110;2022-08-21T12:16:44;20.43;61.53
65291;SHT30;51893;59.754;10.110;2022-08-21T12:21:48;20.69;61.94
65291;SHT30;51893;59.754;10.110;2022-08-21T12:29:48;20.70;59.78
65291;SHT30;51893;59.754;10.110;2022-08-21T12:32:26;20.66;59.51
65291;SHT30;51893;59.754;10.110;2022-08-21T12:35:18;20.66;60.02
65291;SHT30;51893;59.754;10.110;2022-08-21T12:38:00;20.77;59.93
65291;SHT30;51893;59.754;10.110;2022-08-21T12:40:41;21.13;59.16
65291;SHT30;51893;59.754;10.110;2022-08-21T12:43:18;21.36;57.72
65291;SHT30;51893;59.754;10.110;2022-08-21T12:45:55;21.63;57.05
65291;SHT30;51893;59.754;10.110;2022-08-21T12:48:31;21.88;56.22
65291;SHT30;51893;59.754;10.110;2022-08-21T12:51:17;21.83;55.68
65291;SHT30;51893;59.754;10.110;2022-08-21T12:53:55;21.98;55.97
65291;SHT30;51893;59.754;10.110;2022-08-21T12:56:26;22.31;55.45
65291;SHT30;51893;59.754;10.110;2022-08-21T12:59:02;22.50;54.28
65291;SHT30;51893;59.754;10.110;2022-08-21T13:01:39;22.59;52.38
65291;SHT30;51893;59.754;10.110;2022-08-21T13:04:19;22.55;53.03
65291;SHT30;51893;59.754;10.110;2022-08-21T13:07:08;22.86;52.68
65291;SHT30;51893;59.754;10.110;2022-08-21T13:09:55;23.07;52.49
65291;SHT30;51893;59.754;10.110;2022-08-21T13:12:31;23.05;51.77
65291;SHT30;51893;59.754;10.110;2022-08-21T13:15:04;22.82;51.16
65291;SHT30;51893;59.754;10.110;2022-08-21T13:17:36;22.60;52.26
65291;SHT30;51893;59.754;10.110;2022-08-21T13:20:10;22.50;52.38
65291;SHT30;51893;59.754;10.110;2022-08-21T13:22:56;22.31;53.15
65291;SHT30;51893;59.754;10.110;2022-08-21T13:25:27;22.11;52.90
65291;SHT30;51893;59.754;10.110;2022-08-21T13:28:12;21.90;53.16
65291;SHT30;51893;59.754;10.110;2022-08-21T13:30:44;21.69;53.17
65291;SHT30;51893;59.754;10.110;2022-08-21T13:33:15;21.48;53.69
65291;SHT30;51893;59.754;10.110;2022-08-21T13:36:04;21.39;54.64
65291;SHT30;51893;59.754;10.110;2022-08-21T13:38:39;21.30;54.71
65291;SHT30;51893;59.754;10.110;2022-08-21T13:41:18;21.13;55.69
65291;SHT30;51893;59.754;10.110;2022-08-21T13:43:58;20.86;59.13
65291;SHT30;51893;59.754;10.110;2022-08-21T13:46:53;20.52;62.17
65291;SHT30;51893;59.754;10.110;2022-08-21T13:49:25;20.07;64.99
65291;SHT30;51893;59.754;10.110;2022-08-21T13:51:58;19.38;64.82
65291;SHT30;51893;59.754;10.110;2022-08-21T13:54:27;18.24;65.03
65291;SHT30;51893;59.754;10.110;2022-08-21T13:57:24;17.39;68.17
65291;SHT30;51893;59.754;10.110;2022-08-21T14:00:18;16.80;70.11
65291;SHT30;51893;59.754;10.110;2022-08-21T14:02:53;16.43;71.12
65291;SHT30;51893;59.754;10.110;2022-08-21T14:05:33;16.19;71.95
65291;SHT30;51893;59.754;10.110;2022-08-21T14:08:12;16.01;73.34
65291;SHT30;51893;59.754;10.110;2022-08-21T14:10:56;15.87;73.87
65291;SHT30;51893;59.754;10.110;2022-08-21T14:13:34;15.86;73.81
65291;SHT30;51893;59.754;10.110;2022-08-21T14:16:13;15.94;73.89
65291;SHT30;51893;59.754;10.110;2022-08-21T14:19:08;16.04;73.57
65291;SHT30;51893;59.754;10.110;2022-08-21T14:21:47;16.04;73.12
65291;SHT30;51893;59.754;10.110;2022-08-21T14:26:53;16.08;73.73
65291;SHT30;51893;59.754;10.110;2022-08-21T14:29:23;16.07;73.81
65291;SHT30;51893;59.754;10.110;2022-08-21T14:31:59;16.08;74.58
65291;SHT30;51893;59.754;10.110;2022-08-21T14:34:52;16.11;74.62
65291;SHT30;51893;59.754;10.110;2022-08-21T14:37:22;16.10;74.98
65291;SHT30;51893;59.754;10.110;2022-08-21T14:39:51;16.18;75.13
65291;SHT30;51893;59.754;10.110;2022-08-21T14:42:19;16.20;74.77
65291;SHT30;51893;59.754;10.110;2022-08-21T14:44:48;16.28;75.33
65291;SHT30;51893;59.754;10.110;2022-08-21T14:47:16;16.49;76.49
65291;SHT30;51893;59.754;10.110;2022-08-21T14:49:43;16.61;75.27
65291;SHT30;51893;59.754;10.110;2022-08-21T14:52:12;16.74;74.85
65291;SHT30;51893;59.754;10.110;2022-08-21T14:54:40;16.85;74.78
65291;SHT30;51893;59.754;10.110;2022-08-21T14:57:08;17.04;73.29
65291;SHT30;51893;59.754;10.110;2022-08-21T14:59:39;17.30;74.02
65291;SHT30;51893;59.754;10.110;2022-08-21T15:02:09;17.59;73.41
65291;SHT30;51893;59.754;10.110;2022-08-21T15:04:39;17.70;70.97
65291;SHT30;51893;59.754;10.110;2022-08-21T15:07:09;17.75;69.39
65291;SHT30;51893;59.754;10.110;2022-08-21T15:09:36;17.77;68.51
65291;SHT30;51893;59.754;10.110;2022-08-21T15:12:05;17.92;69.76
65291;SHT30;51893;59.754;10.110;2022-08-21T15:14:35;18.10;68.46
65291;SHT30;51893;59.754;10.110;2022-08-21T15:17:08;18.29;68.54
65291;SHT30;51893;59.754;10.110;2022-08-21T15:19:38;18.53;69.19
65291;SHT30;51893;59.754;10.110;2022-08-21T15:22:06;18.69;68.69
65291;SHT30;51893;59.754;10.110;2022-08-21T15:24:45;18.68;69.03
65291;SHT30;51893;59.754;10.110;2022-08-21T15:27:12;18.64;68.41
65291;SHT30;51893;59.754;10.110;2022-08-21T15:29:44;18.55;68.49
65291;SHT30;51893;59.754;10.110;2022-08-21T15:32:17;18.66;68.54
65291;SHT30;51893;59.754;10.110;2022-08-21T15:34:53;18.86;67.11
65291;SHT30;51893;59.754;10.110;2022-08-21T15:37:23;19.05;65.03
65291;SHT30;51893;59.754;10.110;2022-08-21T15:39:52;19.18;65.07
65291;SHT30;51893;59.754;10.110;2022-08-21T15:42:21;19.28;64.36
65291;SHT30;51893;59.754;10.110;2022-08-21T15:44:51;19.40;64.58
65291;SHT30;51893;59.754;10.110;2022-08-21T15:47:22;19.63;64.59
65291;SHT30;51893;59.754;10.110;2022-08-21T15:49:55;19.83;65.09
65291;SHT30;51893;59.754;10.110;2022-08-21T15:52:23;19.97;65.66
65291;SHT30;51893;59.754;10.110;2022-08-21T15:54:55;20.08;63.61
65291;SHT30;51893;59.754;10.110;2022-08-21T15:57:23;20.08;62.51
65291;SHT30;51893;59.754;10.110;2022-08-21T15:59:54;20.17;63.32
65291;SHT30;51893;59.754;10.110;2022-08-21T16:02:33;20.21;63.58
65291;SHT30;51893;59.754;10.110;2022-08-21T16:05:01;20.27;64.21
65291;SHT30;51893;59.754;10.110;2022-08-21T16:07:30;20.39;64.95
65291;SHT30;51893;59.754;10.110;2022-08-21T16:09:59;20.52;64.34
65291;SHT30;51893;59.754;10.110;2022-08-21T16:12:28;20.62;62.43
65291;SHT30;51893;59.754;10.110;2022-08-21T16:15:02;20.77;62.61
65291;SHT30;51893;59.754;10.110;2022-08-21T16:17:36;20.88;63.95
65291;SHT30;51893;59.754;10.110;2022-08-21T16:20:11;20.92;62.36
65291;SHT30;51893;59.754;10.110;2022-08-21T16:22:40;20.96;63.03
65291;SHT30;51893;59.754;10.110;2022-08-21T16:25:12;20.88;62.35
65291;SHT30;51893;59.754;10.110;2022-08-21T16:27:44;20.89;63.01
65291;SHT30;51893;59.754;10.110;2022-08-21T16:30:17;20.95;61.69
65291;SHT30;51893;59.754;10.110;2022-08-21T16:32:47;20.81;62.24
65291;SHT30;51893;59.754;10.110;2022-08-21T16:35:17;20.56;63.00
65291;SHT30;51893;59.754;10.110;2022-08-21T16:37:47;20.69;65.00
65291;SHT30;51893;59.754;10.110;2022-08-21T16:40:19;20.80;64.48
65291;SHT30;51893;59.754;10.110;2022-08-21T16:42:53;20.85;64.00
65291;SHT30;51893;59.754;10.110;2022-08-21T16:45:22;20.93;62.72
65291;SHT30;51893;59.754;10.110;2022-08-21T16:47:50;20.98;63.18
65291;SHT30;51893;59.754;10.110;2022-08-21T16:50:21;20.71;63.13
65291;SHT30;51893;59.754;10.110;2022-08-21T16:52:52;20.77;63.94
65291;SHT30;51893;59.754;10.110;2022-08-21T16:55:20;20.87;63.56
65291;SHT30;51893;59.754;10.110;2022-08-21T16:57:48;20.90;63.30
65291;SHT30;51893;59.754;10.110;2022-08-21T17:00:16;20.94;62.94
65291;SHT30;51893;59.754;10.110;2022-08-21T17:02:46;20.78;63.62
65291;SHT30;51893;59.754;10.110;2022-08-21T17:05:24;20.59;64.09
65291;SHT30;51893;59.754;10.110;2022-08-21T17:07:51;20.48;64.65
65291;SHT30;51893;59.754;10.110;2022-08-21T17:10:19;20.33;64.18